sensor_id;sensor_type;location;lat;lon;timestamp;P1;durP1;ratioP1;P2;durP2;ratioP2
10120;SDS011;5100;45.176;5.714;2023-09-07T00:00:49;4.05;;;3.65;;
10120;SDS011;5100;45.176;5.714;2023-09-07T00:03:15;5.85;;;4.05;;
10120;SDS011;5100;45.176;5.714;2023-09-07T00:05:41;4.25;;;3.85;;
10120;SDS011;5100;45.176;5.714;2023-09-07T00:08:07;4.03;;;3.45;;
10120;SDS011;5100;45.176;5.714;2023-09-07T00:10:34;4.45;;;4.05;;
10120;SDS011;5100;45.176;5.714;2023-09-07T00:13:03;4.87;;;3.85;;
10120;SDS011;5100;45.176;5.714;2023-09-07T00:15:30;4.28;;;3.92;;
10120;SDS011;5100;45.176;5.714;2023-09-07T00:18:00;4.85;;;4.22;;
10120;SDS011;5100;45.176;5.714;2023-09-07T00:20:26;3.53;;;3.22;;
10120;SDS011;5100;45.176;5.714;2023-09-07T00:22:52;4.32;;;3.80;;
10120;SDS011;5100;45.176;5.714;2023-09-07T00:25:19;9.88;;;4.30;;
10120;SDS011;5100;45.176;5.714;2023-09-07T00:27:46;6.72;;;4.32;;
10120;SDS011;5100;45.176;5.714;2023-09-07T00:30:12;3.70;;;3.40;;
10120;SDS011;5100;45.176;5.714;2023-09-07T00:32:38;5.53;;;4.00;;
10120;SDS011;5100;45.176;5.714;2023-09-07T00:35:04;6.47;;;4.32;;
10120;SDS011;5100;45.176;5.714;2023-09-07T00:37:31;5.80;;;3.90;;
10120;SDS011;5100;45.176;5.714;2023-09-07T00:39:59;5.80;;;4.30;;
10120;SDS011;5100;45.176;5.714;2023-09-07T00:42:25;6.70;;;4.32;;
10120;SDS011;5100;45.176;5.714;2023-09-07T00:44:51;4.30;;;3.92;;
10120;SDS011;5100;45.176;5.714;2023-09-07T00:47:17;6.40;;;3.90;;
10120;SDS011;5100;45.176;5.714;2023-09-07T00:49:44;4.53;;;4.12;;
10120;SDS011;5100;45.176;5.714;2023-09-07T00:52:11;4.93;;;4.53;;
10120;SDS011;5100;45.176;5.714;2023-09-07T00:54:38;5.82;;;4.18;;
10120;SDS011;5100;45.176;5.714;2023-09-07T00:57:15;5.12;;;4.20;;
10120;SDS011;5100;45.176;5.714;2023-09-07T00:59:42;4.20;;;3.90;;
10120;SDS011;5100;45.176;5.714;2023-09-07T01:02:08;4.30;;;3.90;;
10120;SDS011;5100;45.176;5.714;2023-09-07T01:04:34;4.97;;;4.55;;
10120;SDS011;5100;45.176;5.714;2023-09-07T01:07:23;4.40;;;4.10;;
10120;SDS011;5100;45.176;5.714;2023-09-07T01:09:52;5.95;;;4.35;;
10120;SDS011;5100;45.176;5.714;2023-09-07T01:12:22;4.30;;;4.00;;
10120;SDS011;5100;45.176;5.714;2023-09-07T01:14:47;5.20;;;4.65;;
10120;SDS011;5100;45.176;5.714;2023-09-07T01:17:13;5.18;;;4.53;;
10120;SDS011;5100;45.176;5.714;2023-09-07T01:19:41;6.75;;;4.93;;
10120;SDS011;5100;45.176;5.714;2023-09-07T01:22:08;6.82;;;4.90;;
10120;SDS011;5100;45.176;5.714;2023-09-07T01:24:34;6.07;;;4.45;;
10120;SDS011;5100;45.176;5.714;2023-09-07T01:27:04;8.35;;;4.43;;
10120;SDS011;5100;45.176;5.714;2023-09-07T01:29:32;5.12;;;4.70;;
10120;SDS011;5100;45.176;5.714;2023-09-07T01:31:59;5.97;;;4.40;;
10120;SDS011;5100;45.176;5.714;2023-09-07T01:34:26;4.37;;;4.07;;
10120;SDS011;5100;45.176;5.714;2023-09-07T01:36:53;5.78;;;4.57;;
10120;SDS011;5100;45.176;5.714;2023-09-07T01:39:19;4.85;;;4.45;;
10120;SDS011;5100;45.176;5.714;2023-09-07T01:41:45;6.10;;;4.32;;
10120;SDS011;5100;45.176;5.714;2023-09-07T01:44:11;4.65;;;4.25;;
10120;SDS011;5100;45.176;5.714;2023-09-07T01:46:37;4.90;;;4.40;;
10120;SDS011;5100;45.176;5.714;2023-09-07T01:49:03;8.60;;;4.90;;
10120;SDS011;5100;45.176;5.714;2023-09-07T01:51:29;5.00;;;4.55;;
10120;SDS011;5100;45.176;5.714;2023-09-07T01:53:55;4.47;;;4.07;;
10120;SDS011;5100;45.176;5.714;2023-09-07T01:56:21;4.53;;;4.12;;
10120;SDS011;5100;45.176;5.714;2023-09-07T01:58:47;5.87;;;4.35;;
10120;SDS011;5100;45.176;5.714;2023-09-07T02:01:47;5.00;;;4.60;;
10120;SDS011;5100;45.176;5.714;2023-09-07T02:04:06;5.07;;;4.55;;
10120;SDS011;5100;45.176;5.714;2023-09-07T02:06:32;4.87;;;4.37;;
10120;SDS011;5100;45.176;5.714;2023-09-07T02:08:58;4.72;;;4.32;;
10120;SDS011;5100;45.176;5.714;2023-09-07T02:11:24;5.07;;;4.57;;
10120;SDS011;5100;45.176;5.714;2023-09-07T02:13:50;5.50;;;4.72;;
10120;SDS011;5100;45.176;5.714;2023-09-07T02:16:16;5.22;;;4.72;;
10120;SDS011;5100;45.176;5.714;2023-09-07T02:18:44;4.62;;;4.25;;
10120;SDS011;5100;45.176;5.714;2023-09-07T02:21:12;5.97;;;4.95;;
10120;SDS011;5100;45.176;5.714;2023-09-07T02:23:39;4.87;;;4.35;;
10120;SDS011;5100;45.176;5.714;2023-09-07T02:26:05;5.15;;;4.65;;
10120;SDS011;5100;45.176;5.714;2023-09-07T02:28:31;5.20;;;4.80;;
10120;SDS011;5100;45.176;5.714;2023-09-07T02:31:03;5.50;;;4.95;;
10120;SDS011;5100;45.176;5.714;2023-09-07T02:33:31;7.47;;;4.70;;
10120;SDS011;5100;45.176;5.714;2023-09-07T02:35:57;6.65;;;4.62;;
10120;SDS011;5100;45.176;5.714;2023-09-07T02:38:24;5.57;;;5.07;;
10120;SDS011;5100;45.176;5.714;2023-09-07T02:40:51;5.07;;;4.68;;
10120;SDS011;5100;45.176;5.714;2023-09-07T02:43:18;5.05;;;4.65;;
10120;SDS011;5100;45.176;5.714;2023-09-07T02:45:44;4.93;;;4.43;;
10120;SDS011;5100;45.176;5.714;2023-09-07T02:48:10;7.65;;;4.78;;
10120;SDS011;5100;45.176;5.714;2023-09-07T02:50:37;5.32;;;4.82;;
10120;SDS011;5100;45.176;5.714;2023-09-07T02:53:03;5.07;;;4.55;;
10120;SDS011;5100;45.176;5.714;2023-09-07T02:55:30;6.85;;;4.65;;
10120;SDS011;5100;45.176;5.714;2023-09-07T02:57:57;6.57;;;4.82;;
10120;SDS011;5100;45.176;5.714;2023-09-07T03:00:23;5.57;;;5.10;;
10120;SDS011;5100;45.176;5.714;2023-09-07T03:02:50;4.72;;;4.32;;
10120;SDS011;5100;45.176;5.714;2023-09-07T03:05:16;5.40;;;4.90;;
10120;SDS011;5100;45.176;5.714;2023-09-07T03:07:44;5.87;;;4.85;;
10120;SDS011;5100;45.176;5.714;2023-09-07T03:10:11;5.07;;;4.68;;
10120;SDS011;5100;45.176;5.714;2023-09-07T03:12:40;5.45;;;4.95;;
10120;SDS011;5100;45.176;5.714;2023-09-07T03:15:06;5.57;;;4.50;;
10120;SDS011;5100;45.176;5.714;2023-09-07T03:17:33;4.97;;;4.47;;
10120;SDS011;5100;45.176;5.714;2023-09-07T03:20:00;5.43;;;4.87;;
10120;SDS011;5100;45.176;5.714;2023-09-07T03:22:37;5.57;;;4.40;;
10120;SDS011;5100;45.176;5.714;2023-09-07T03:25:03;5.78;;;5.28;;
10120;SDS011;5100;45.176;5.714;2023-09-07T03:27:30;6.32;;;4.82;;
10120;SDS011;5100;45.176;5.714;2023-09-07T03:29:56;4.80;;;4.40;;
10120;SDS011;5100;45.176;5.714;2023-09-07T03:32:22;6.37;;;4.40;;
10120;SDS011;5100;45.176;5.714;2023-09-07T03:34:48;5.32;;;4.90;;
10120;SDS011;5100;45.176;5.714;2023-09-07T03:37:15;5.50;;;4.85;;
10120;SDS011;5100;45.176;5.714;2023-09-07T03:39:41;5.60;;;5.07;;
10120;SDS011;5100;45.176;5.714;2023-09-07T03:42:07;5.43;;;4.97;;
10120;SDS011;5100;45.176;5.714;2023-09-07T03:44:33;6.43;;;5.12;;
10120;SDS011;5100;45.176;5.714;2023-09-07T03:47:00;4.80;;;4.40;;
10120;SDS011;5100;45.176;5.714;2023-09-07T03:49:26;5.07;;;4.62;;
10120;SDS011;5100;45.176;5.714;2023-09-07T03:51:52;4.85;;;4.43;;
10120;SDS011;5100;45.176;5.714;2023-09-07T03:54:18;5.45;;;4.95;;
10120;SDS011;5100;45.176;5.714;2023-09-07T03:56:44;10.70;;;5.72;;
10120;SDS011;5100;45.176;5.714;2023-09-07T03:59:10;4.93;;;4.53;;
10120;SDS011;5100;45.176;5.714;2023-09-07T04:01:36;7.90;;;5.03;;
10120;SDS011;5100;45.176;5.714;2023-09-07T04:04:02;5.43;;;4.87;;
10120;SDS011;5100;45.176;5.714;2023-09-07T04:06:28;5.57;;;4.80;;
10120;SDS011;5100;45.176;5.714;2023-09-07T04:08:55;5.22;;;4.70;;
10120;SDS011;5100;45.176;5.714;2023-09-07T04:11:21;8.80;;;5.25;;
10120;SDS011;5100;45.176;5.714;2023-09-07T04:13:47;5.37;;;4.87;;
10120;SDS011;5100;45.176;5.714;2023-09-07T04:16:14;5.00;;;4.60;;
10120;SDS011;5100;45.176;5.714;2023-09-07T04:18:40;7.55;;;5.70;;
10120;SDS011;5100;45.176;5.714;2023-09-07T04:21:08;6.75;;;5.00;;
10120;SDS011;5100;45.176;5.714;2023-09-07T04:23:34;6.50;;;4.85;;
10120;SDS011;5100;45.176;5.714;2023-09-07T04:26:08;7.35;;;5.20;;
10120;SDS011;5100;45.176;5.714;2023-09-07T04:28:35;5.40;;;4.90;;
10120;SDS011;5100;45.176;5.714;2023-09-07T04:31:02;5.10;;;4.65;;
10120;SDS011;5100;45.176;5.714;2023-09-07T04:33:32;5.05;;;4.65;;
10120;SDS011;5100;45.176;5.714;2023-09-07T04:36:08;4.95;;;4.32;;
10120;SDS011;5100;45.176;5.714;2023-09-07T04:38:36;4.82;;;4.43;;
10120;SDS011;5100;45.176;5.714;2023-09-07T04:41:06;6.87;;;4.78;;
10120;SDS011;5100;45.176;5.714;2023-09-07T04:43:36;5.00;;;4.60;;
10120;SDS011;5100;45.176;5.714;2023-09-07T04:46:06;4.85;;;4.45;;
10120;SDS011;5100;45.176;5.714;2023-09-07T04:48:32;5.10;;;4.65;;
10120;SDS011;5100;45.176;5.714;2023-09-07T04:51:03;4.97;;;4.47;;
10120;SDS011;5100;45.176;5.714;2023-09-07T04:53:32;6.30;;;4.70;;
10120;SDS011;5100;45.176;5.714;2023-09-07T04:56:01;6.62;;;4.95;;
10120;SDS011;5100;45.176;5.714;2023-09-07T04:58:31;7.95;;;4.37;;
10120;SDS011;5100;45.176;5.714;2023-09-07T05:01:04;5.30;;;4.65;;
10120;SDS011;5100;45.176;5.714;2023-09-07T05:03:31;7.12;;;4.72;;
10120;SDS011;5100;45.176;5.714;2023-09-07T05:05:59;6.40;;;5.05;;
10120;SDS011;5100;45.176;5.714;2023-09-07T05:08:26;7.82;;;4.65;;
10120;SDS011;5100;45.176;5.714;2023-09-07T05:10:56;8.05;;;4.60;;
10120;SDS011;5100;45.176;5.714;2023-09-07T05:13:23;7.00;;;4.60;;
10120;SDS011;5100;45.176;5.714;2023-09-07T05:15:49;4.55;;;4.10;;
10120;SDS011;5100;45.176;5.714;2023-09-07T05:18:17;5.95;;;4.18;;
10120;SDS011;5100;45.176;5.714;2023-09-07T05:20:44;6.03;;;4.80;;
10120;SDS011;5100;45.176;5.714;2023-09-07T05:23:13;7.57;;;4.55;;
10120;SDS011;5100;45.176;5.714;2023-09-07T05:25:45;8.88;;;4.70;;
10120;SDS011;5100;45.176;5.714;2023-09-07T05:28:13;5.97;;;4.65;;
10120;SDS011;5100;45.176;5.714;2023-09-07T05:30:40;7.45;;;4.45;;
10120;SDS011;5100;45.176;5.714;2023-09-07T05:33:10;7.00;;;4.03;;
10120;SDS011;5100;45.176;5.714;2023-09-07T05:35:40;7.47;;;4.95;;
10120;SDS011;5100;45.176;5.714;2023-09-07T05:38:07;4.93;;;3.87;;
10120;SDS011;5100;45.176;5.714;2023-09-07T05:40:35;6.20;;;4.57;;
10120;SDS011;5100;45.176;5.714;2023-09-07T05:43:02;7.82;;;4.75;;
10120;SDS011;5100;45.176;5.714;2023-09-07T05:45:39;5.20;;;4.07;;
10120;SDS011;5100;45.176;5.714;2023-09-07T05:48:06;7.15;;;4.53;;
10120;SDS011;5100;45.176;5.714;2023-09-07T05:50:33;7.85;;;4.78;;
10120;SDS011;5100;45.176;5.714;2023-09-07T05:53:01;6.45;;;4.07;;
10120;SDS011;5100;45.176;5.714;2023-09-07T05:55:27;13.52;;;4.37;;
10120;SDS011;5100;45.176;5.714;2023-09-07T05:57:57;4.47;;;3.80;;
10120;SDS011;5100;45.176;5.714;2023-09-07T06:00:24;6.18;;;4.20;;
10120;SDS011;5100;45.176;5.714;2023-09-07T06:02:50;5.75;;;3.97;;
10120;SDS011;5100;45.176;5.714;2023-09-07T06:05:17;4.72;;;3.58;;
10120;SDS011;5100;45.176;5.714;2023-09-07T06:07:43;6.03;;;3.97;;
10120;SDS011;5100;45.176;5.714;2023-09-07T06:10:11;5.05;;;4.55;;
10120;SDS011;5100;45.176;5.714;2023-09-07T06:12:37;10.70;;;4.90;;
10120;SDS011;5100;45.176;5.714;2023-09-07T06:15:03;7.35;;;4.12;;
10120;SDS011;5100;45.176;5.714;2023-09-07T06:17:30;5.10;;;4.40;;
10120;SDS011;5100;45.176;5.714;2023-09-07T06:19:56;6.72;;;4.55;;
10120;SDS011;5100;45.176;5.714;2023-09-07T06:22:23;6.32;;;4.15;;
10120;SDS011;5100;45.176;5.714;2023-09-07T06:24:50;8.93;;;4.68;;
10120;SDS011;5100;45.176;5.714;2023-09-07T06:27:16;7.95;;;4.40;;
10120;SDS011;5100;45.176;5.714;2023-09-07T06:29:42;5.10;;;4.45;;
10120;SDS011;5100;45.176;5.714;2023-09-07T06:32:09;7.05;;;4.87;;
10120;SDS011;5100;45.176;5.714;2023-09-07T06:34:35;4.90;;;4.37;;
10120;SDS011;5100;45.176;5.714;2023-09-07T06:37:01;7.35;;;4.78;;
10120;SDS011;5100;45.176;5.714;2023-09-07T06:39:28;5.00;;;4.50;;
10120;SDS011;5100;45.176;5.714;2023-09-07T06:41:54;5.95;;;5.30;;
10120;SDS011;5100;45.176;5.714;2023-09-07T06:44:20;5.62;;;4.57;;
10120;SDS011;5100;45.176;5.714;2023-09-07T06:46:47;5.40;;;4.90;;
10120;SDS011;5100;45.176;5.714;2023-09-07T06:49:16;7.12;;;5.43;;
10120;SDS011;5100;45.176;5.714;2023-09-07T06:51:42;7.95;;;5.15;;
10120;SDS011;5100;45.176;5.714;2023-09-07T06:54:09;5.75;;;5.18;;
10120;SDS011;5100;45.176;5.714;2023-09-07T06:56:35;7.35;;;5.45;;
10120;SDS011;5100;45.176;5.714;2023-09-07T06:59:02;5.05;;;4.65;;
10120;SDS011;5100;45.176;5.714;2023-09-07T07:01:28;5.53;;;4.97;;
10120;SDS011;5100;45.176;5.714;2023-09-07T07:03:54;7.45;;;5.97;;
10120;SDS011;5100;45.176;5.714;2023-09-07T07:06:23;5.65;;;5.12;;
10120;SDS011;5100;45.176;5.714;2023-09-07T07:08:49;6.60;;;6.00;;
10120;SDS011;5100;45.176;5.714;2023-09-07T07:11:17;8.32;;;5.97;;
10120;SDS011;5100;45.176;5.714;2023-09-07T07:13:42;6.80;;;5.93;;
10120;SDS011;5100;45.176;5.714;2023-09-07T07:16:10;7.00;;;5.25;;
10120;SDS011;5100;45.176;5.714;2023-09-07T07:18:36;5.47;;;4.85;;
10120;SDS011;5100;45.176;5.714;2023-09-07T07:21:02;7.72;;;5.57;;
10120;SDS011;5100;45.176;5.714;2023-09-07T07:23:28;9.10;;;5.68;;
10120;SDS011;5100;45.176;5.714;2023-09-07T07:25:55;8.90;;;5.40;;
10120;SDS011;5100;45.176;5.714;2023-09-07T07:28:22;9.07;;;5.70;;
10120;SDS011;5100;45.176;5.714;2023-09-07T07:30:49;6.12;;;5.57;;
10120;SDS011;5100;45.176;5.714;2023-09-07T07:33:17;9.68;;;6.05;;
10120;SDS011;5100;45.176;5.714;2023-09-07T07:35:44;6.15;;;5.55;;
10120;SDS011;5100;45.176;5.714;2023-09-07T07:38:10;7.40;;;5.60;;
10120;SDS011;5100;45.176;5.714;2023-09-07T07:40:39;6.75;;;5.82;;
10120;SDS011;5100;45.176;5.714;2023-09-07T07:43:05;7.43;;;5.50;;
10120;SDS011;5100;45.176;5.714;2023-09-07T07:45:32;6.85;;;5.93;;
10120;SDS011;5100;45.176;5.714;2023-09-07T07:48:03;6.43;;;5.82;;
10120;SDS011;5100;45.176;5.714;2023-09-07T07:50:36;6.00;;;5.35;;
10120;SDS011;5100;45.176;5.714;2023-09-07T07:53:06;5.87;;;4.95;;
10120;SDS011;5100;45.176;5.714;2023-09-07T07:55:34;9.82;;;5.80;;
10120;SDS011;5100;45.176;5.714;2023-09-07T07:58:05;9.93;;;5.72;;
10120;SDS011;5100;45.176;5.714;2023-09-07T08:00:34;15.20;;;6.30;;
10120;SDS011;5100;45.176;5.714;2023-09-07T08:03:02;11.52;;;5.72;;
10120;SDS011;5100;45.176;5.714;2023-09-07T08:05:29;6.30;;;5.20;;
10120;SDS011;5100;45.176;5.714;2023-09-07T08:07:56;11.20;;;5.50;;
10120;SDS011;5100;45.176;5.714;2023-09-07T08:10:22;12.43;;;6.07;;
10120;SDS011;5100;45.176;5.714;2023-09-07T08:12:52;7.12;;;5.80;;
10120;SDS011;5100;45.176;5.714;2023-09-07T08:15:20;8.02;;;5.55;;
10120;SDS011;5100;45.176;5.714;2023-09-07T08:17:48;9.43;;;5.07;;
10120;SDS011;5100;45.176;5.714;2023-09-07T08:20:14;8.35;;;5.93;;
10120;SDS011;5100;45.176;5.714;2023-09-07T08:22:41;9.60;;;6.12;;
10120;SDS011;5100;45.176;5.714;2023-09-07T08:25:09;5.57;;;4.78;;
10120;SDS011;5100;45.176;5.714;2023-09-07T08:27:35;6.60;;;5.32;;
10120;SDS011;5100;45.176;5.714;2023-09-07T08:30:02;5.90;;;4.50;;
10120;SDS011;5100;45.176;5.714;2023-09-07T08:32:29;7.97;;;5.18;;
10120;SDS011;5100;45.176;5.714;2023-09-07T08:34:55;9.52;;;5.55;;
10120;SDS011;5100;45.176;5.714;2023-09-07T08:37:23;7.00;;;5.53;;
10120;SDS011;5100;45.176;5.714;2023-09-07T08:39:50;10.50;;;6.00;;
10120;SDS011;5100;45.176;5.714;2023-09-07T08:42:16;10.30;;;6.45;;
10120;SDS011;5100;45.176;5.714;2023-09-07T08:44:43;10.32;;;6.18;;
10120;SDS011;5100;45.176;5.714;2023-09-07T08:47:12;7.03;;;5.35;;
10120;SDS011;5100;45.176;5.714;2023-09-07T08:49:40;10.43;;;5.80;;
10120;SDS011;5100;45.176;5.714;2023-09-07T08:52:08;7.47;;;5.22;;
10120;SDS011;5100;45.176;5.714;2023-09-07T08:54:35;9.20;;;6.10;;
10120;SDS011;5100;45.176;5.714;2023-09-07T08:57:02;8.60;;;5.87;;
10120;SDS011;5100;45.176;5.714;2023-09-07T08:59:29;13.98;;;5.45;;
10120;SDS011;5100;45.176;5.714;2023-09-07T09:01:56;6.32;;;5.40;;
10120;SDS011;5100;45.176;5.714;2023-09-07T09:04:24;8.20;;;5.45;;
10120;SDS011;5100;45.176;5.714;2023-09-07T09:06:51;5.62;;;4.40;;
10120;SDS011;5100;45.176;5.714;2023-09-07T09:09:24;9.15;;;5.00;;
10120;SDS011;5100;45.176;5.714;2023-09-07T09:11:50;5.70;;;4.97;;
10120;SDS011;5100;45.176;5.714;2023-09-07T09:14:17;6.60;;;5.25;;
10120;SDS011;5100;45.176;5.714;2023-09-07T09:16:50;6.28;;;4.93;;
10120;SDS011;5100;45.176;5.714;2023-09-07T09:19:17;9.15;;;4.53;;
10120;SDS011;5100;45.176;5.714;2023-09-07T09:21:46;6.15;;;4.95;;
10120;SDS011;5100;45.176;5.714;2023-09-07T09:24:15;10.93;;;5.30;;
10120;SDS011;5100;45.176;5.714;2023-09-07T09:26:43;7.55;;;5.05;;
10120;SDS011;5100;45.176;5.714;2023-09-07T09:29:09;7.80;;;4.95;;
10120;SDS011;5100;45.176;5.714;2023-09-07T09:31:37;6.40;;;5.60;;
10120;SDS011;5100;45.176;5.714;2023-09-07T09:34:02;6.10;;;5.50;;
10120;SDS011;5100;45.176;5.714;2023-09-07T09:36:32;5.40;;;4.90;;
10120;SDS011;5100;45.176;5.714;2023-09-07T09:39:00;8.10;;;4.85;;
10120;SDS011;5100;45.176;5.714;2023-09-07T09:41:26;7.62;;;5.03;;
10120;SDS011;5100;45.176;5.714;2023-09-07T09:43:55;6.78;;;4.80;;
10120;SDS011;5100;45.176;5.714;2023-09-07T09:46:22;6.43;;;4.57;;
10120;SDS011;5100;45.176;5.714;2023-09-07T09:48:49;6.18;;;4.45;;
10120;SDS011;5100;45.176;5.714;2023-09-07T09:51:15;5.65;;;4.78;;
10120;SDS011;5100;45.176;5.714;2023-09-07T09:53:44;9.13;;;4.78;;
10120;SDS011;5100;45.176;5.714;2023-09-07T09:56:10;6.37;;;5.45;;
10120;SDS011;5100;45.176;5.714;2023-09-07T09:58:36;8.13;;;4.93;;
10120;SDS011;5100;45.176;5.714;2023-09-07T10:01:03;6.18;;;4.93;;
10120;SDS011;5100;45.176;5.714;2023-09-07T10:03:32;5.00;;;4.50;;
10120;SDS011;5100;45.176;5.714;2023-09-07T10:06:17;6.18;;;5.30;;
10120;SDS011;5100;45.176;5.714;2023-09-07T10:08:53;7.40;;;4.68;;
10120;SDS011;5100;45.176;5.714;2023-09-07T10:11:36;7.70;;;5.12;;
10120;SDS011;5100;45.176;5.714;2023-09-07T10:14:04;7.87;;;4.60;;
10120;SDS011;5100;45.176;5.714;2023-09-07T10:19:18;8.07;;;4.93;;
10120;SDS011;5100;45.176;5.714;2023-09-07T10:21:45;5.57;;;4.68;;
10120;SDS011;5100;45.176;5.714;2023-09-07T10:24:25;5.90;;;5.18;;
10120;SDS011;5100;45.176;5.714;2023-09-07T10:27:02;5.60;;;5.12;;
10120;SDS011;5100;45.176;5.714;2023-09-07T10:29:42;5.37;;;4.87;;
10120;SDS011;5100;45.176;5.714;2023-09-07T10:32:09;6.78;;;4.60;;
10120;SDS011;5100;45.176;5.714;2023-09-07T10:34:38;4.90;;;4.47;;
10120;SDS011;5100;45.176;5.714;2023-09-07T10:37:07;7.40;;;4.85;;
10120;SDS011;5100;45.176;5.714;2023-09-07T10:39:35;4.75;;;4.35;;
10120;SDS011;5100;45.176;5.714;2023-09-07T10:42:02;5.43;;;4.68;;
10120;SDS011;5100;45.176;5.714;2023-09-07T10:44:28;5.20;;;4.70;;
10120;SDS011;5100;45.176;5.714;2023-09-07T10:46:55;5.95;;;4.60;;
10120;SDS011;5100;45.176;5.714;2023-09-07T10:49:23;6.45;;;5.15;;
10120;SDS011;5100;45.176;5.714;2023-09-07T10:51:50;5.35;;;4.85;;
10120;SDS011;5100;45.176;5.714;2023-09-07T10:54:25;6.68;;;5.05;;
10120;SDS011;5100;45.176;5.714;2023-09-07T10:56:51;6.57;;;4.10;;
10120;SDS011;5100;45.176;5.714;2023-09-07T10:59:18;5.87;;;5.37;;
10120;SDS011;5100;45.176;5.714;2023-09-07T11:01:44;7.57;;;5.62;;
10120;SDS011;5100;45.176;5.714;2023-09-07T11:04:11;4.53;;;4.12;;
10120;SDS011;5100;45.176;5.714;2023-09-07T11:06:38;4.90;;;3.92;;
10120;SDS011;5100;45.176;5.714;2023-09-07T11:09:06;6.22;;;3.72;;
10120;SDS011;5100;45.176;5.714;2023-09-07T11:11:34;5.10;;;4.10;;
10120;SDS011;5100;45.176;5.714;2023-09-07T11:14:02;4.68;;;3.60;;
10120;SDS011;5100;45.176;5.714;2023-09-07T11:16:29;6.82;;;4.10;;
10120;SDS011;5100;45.176;5.714;2023-09-07T11:18:55;5.68;;;3.87;;
10120;SDS011;5100;45.176;5.714;2023-09-07T11:21:22;3.85;;;3.50;;
10120;SDS011;5100;45.176;5.714;2023-09-07T11:23:48;6.68;;;3.65;;
10120;SDS011;5100;45.176;5.714;2023-09-07T11:26:16;6.37;;;3.20;;
10120;SDS011;5100;45.176;5.714;2023-09-07T11:28:44;5.25;;;3.33;;
10120;SDS011;5100;45.176;5.714;2023-09-07T11:31:11;3.25;;;2.95;;
10120;SDS011;5100;45.176;5.714;2023-09-07T11:33:38;3.45;;;2.78;;
10120;SDS011;5100;45.176;5.714;2023-09-07T11:36:06;3.20;;;3.00;;
10120;SDS011;5100;45.176;5.714;2023-09-07T11:38:35;3.35;;;3.03;;
10120;SDS011;5100;45.176;5.714;2023-09-07T11:41:03;3.28;;;3.00;;
10120;SDS011;5100;45.176;5.714;2023-09-07T11:43:29;3.92;;;3.00;;
10120;SDS011;5100;45.176;5.714;2023-09-07T11:45:55;3.87;;;3.00;;
10120;SDS011;5100;45.176;5.714;2023-09-07T11:48:22;3.30;;;3.00;;
10120;SDS011;5100;45.176;5.714;2023-09-07T11:50:48;4.37;;;3.10;;
10120;SDS011;5100;45.176;5.714;2023-09-07T11:53:14;3.87;;;3.10;;
10120;SDS011;5100;45.176;5.714;2023-09-07T11:55:41;10.98;;;3.35;;
10120;SDS011;5100;45.176;5.714;2023-09-07T11:58:08;3.28;;;2.97;;
10120;SDS011;5100;45.176;5.714;2023-09-07T12:00:34;3.33;;;2.90;;
10120;SDS011;5100;45.176;5.714;2023-09-07T12:03:01;3.15;;;2.92;;
10120;SDS011;5100;45.176;5.714;2023-09-07T12:05:27;3.85;;;2.90;;
10120;SDS011;5100;45.176;5.714;2023-09-07T12:07:53;4.75;;;3.28;;
10120;SDS011;5100;45.176;5.714;2023-09-07T12:10:20;3.75;;;3.03;;
10120;SDS011;5100;45.176;5.714;2023-09-07T12:12:46;3.12;;;2.80;;
10120;SDS011;5100;45.176;5.714;2023-09-07T12:15:12;3.58;;;2.75;;
10120;SDS011;5100;45.176;5.714;2023-09-07T12:17:38;4.35;;;3.15;;
10120;SDS011;5100;45.176;5.714;2023-09-07T12:20:05;5.10;;;2.87;;
10120;SDS011;5100;45.176;5.714;2023-09-07T12:22:38;5.03;;;2.80;;
10120;SDS011;5100;45.176;5.714;2023-09-07T12:25:06;3.60;;;3.00;;
10120;SDS011;5100;45.176;5.714;2023-09-07T12:27:36;3.87;;;3.35;;
10120;SDS011;5100;45.176;5.714;2023-09-07T12:30:02;2.85;;;2.65;;
10120;SDS011;5100;45.176;5.714;2023-09-07T12:32:32;3.35;;;2.50;;
10120;SDS011;5100;45.176;5.714;2023-09-07T12:34:58;3.08;;;2.30;;
10120;SDS011;5100;45.176;5.714;2023-09-07T12:37:24;3.20;;;2.58;;
10120;SDS011;5100;45.176;5.714;2023-09-07T12:39:51;2.95;;;2.65;;
10120;SDS011;5100;45.176;5.714;2023-09-07T12:42:17;3.90;;;2.42;;
10120;SDS011;5100;45.176;5.714;2023-09-07T12:45:00;5.00;;;2.75;;
10120;SDS011;5100;45.176;5.714;2023-09-07T12:47:26;2.47;;;2.30;;
10120;SDS011;5100;45.176;5.714;2023-09-07T12:49:52;3.55;;;2.50;;
10120;SDS011;5100;45.176;5.714;2023-09-07T12:52:18;3.80;;;2.40;;
10120;SDS011;5100;45.176;5.714;2023-09-07T12:54:44;3.22;;;2.62;;
10120;SDS011;5100;45.176;5.714;2023-09-07T12:57:10;5.18;;;2.80;;
10120;SDS011;5100;45.176;5.714;2023-09-07T12:59:36;4.05;;;2.53;;
10120;SDS011;5100;45.176;5.714;2023-09-07T13:02:03;3.92;;;2.60;;
10120;SDS011;5100;45.176;5.714;2023-09-07T13:04:29;5.50;;;3.03;;
10120;SDS011;5100;45.176;5.714;2023-09-07T13:06:55;3.03;;;2.72;;
10120;SDS011;5100;45.176;5.714;2023-09-07T13:09:21;2.97;;;2.55;;
10120;SDS011;5100;45.176;5.714;2023-09-07T13:11:47;3.03;;;2.28;;
10120;SDS011;5100;45.176;5.714;2023-09-07T13:14:13;2.92;;;2.60;;
10120;SDS011;5100;45.176;5.714;2023-09-07T13:16:39;3.92;;;2.30;;
10120;SDS011;5100;45.176;5.714;2023-09-07T13:19:05;3.12;;;2.83;;
10120;SDS011;5100;45.176;5.714;2023-09-07T13:21:31;7.90;;;2.72;;
10120;SDS011;5100;45.176;5.714;2023-09-07T13:23:58;4.05;;;2.83;;
10120;SDS011;5100;45.176;5.714;2023-09-07T13:26:24;2.87;;;2.58;;
10120;SDS011;5100;45.176;5.714;2023-09-07T13:28:49;3.05;;;2.22;;
10120;SDS011;5100;45.176;5.714;2023-09-07T13:31:16;4.65;;;2.67;;
10120;SDS011;5100;45.176;5.714;2023-09-07T13:33:42;2.75;;;2.53;;
10120;SDS011;5100;45.176;5.714;2023-09-07T13:36:08;2.78;;;2.58;;
10120;SDS011;5100;45.176;5.714;2023-09-07T13:38:35;4.40;;;2.55;;
10120;SDS011;5100;45.176;5.714;2023-09-07T13:41:01;6.37;;;2.60;;
10120;SDS011;5100;45.176;5.714;2023-09-07T13:43:27;3.75;;;2.85;;
10120;SDS011;5100;45.176;5.714;2023-09-07T13:45:53;3.97;;;2.62;;
10120;SDS011;5100;45.176;5.714;2023-09-07T13:48:19;7.00;;;3.12;;
10120;SDS011;5100;45.176;5.714;2023-09-07T13:50:45;9.50;;;3.92;;
10120;SDS011;5100;45.176;5.714;2023-09-07T13:53:12;2.87;;;2.40;;
10120;SDS011;5100;45.176;5.714;2023-09-07T13:55:38;3.25;;;2.40;;
10120;SDS011;5100;45.176;5.714;2023-09-07T13:58:05;2.30;;;2.15;;
10120;SDS011;5100;45.176;5.714;2023-09-07T14:00:32;2.67;;;2.47;;
10120;SDS011;5100;45.176;5.714;2023-09-07T14:02:58;3.72;;;2.22;;
10120;SDS011;5100;45.176;5.714;2023-09-07T14:05:24;7.62;;;2.53;;
10120;SDS011;5100;45.176;5.714;2023-09-07T14:07:50;2.47;;;2.28;;
10120;SDS011;5100;45.176;5.714;2023-09-07T14:10:16;4.70;;;2.50;;
10120;SDS011;5100;45.176;5.714;2023-09-07T14:12:42;3.75;;;3.10;;
10120;SDS011;5100;45.176;5.714;2023-09-07T14:15:09;8.90;;;2.80;;
10120;SDS011;5100;45.176;5.714;2023-09-07T14:17:36;3.70;;;2.60;;
10120;SDS011;5100;45.176;5.714;2023-09-07T14:20:01;2.40;;;2.20;;
10120;SDS011;5100;45.176;5.714;2023-09-07T14:22:28;5.53;;;3.17;;
10120;SDS011;5100;45.176;5.714;2023-09-07T14:24:54;9.95;;;2.47;;
10120;SDS011;5100;45.176;5.714;2023-09-07T14:27:20;2.53;;;2.33;;
10120;SDS011;5100;45.176;5.714;2023-09-07T14:29:46;3.20;;;2.30;;
10120;SDS011;5100;45.176;5.714;2023-09-07T14:32:12;3.80;;;2.47;;
10120;SDS011;5100;45.176;5.714;2023-09-07T14:34:38;3.70;;;2.45;;
10120;SDS011;5100;45.176;5.714;2023-09-07T14:37:04;2.72;;;2.37;;
10120;SDS011;5100;45.176;5.714;2023-09-07T14:39:30;4.15;;;2.10;;
10120;SDS011;5100;45.176;5.714;2023-09-07T14:41:56;4.78;;;2.22;;
10120;SDS011;5100;45.176;5.714;2023-09-07T14:44:23;2.60;;;2.37;;
10120;SDS011;5100;45.176;5.714;2023-09-07T14:46:50;3.35;;;2.40;;
10120;SDS011;5100;45.176;5.714;2023-09-07T14:49:16;3.35;;;2.53;;
10120;SDS011;5100;45.176;5.714;2023-09-07T14:51:46;4.03;;;2.30;;
10120;SDS011;5100;45.176;5.714;2023-09-07T14:54:12;2.55;;;2.00;;
10120;SDS011;5100;45.176;5.714;2023-09-07T14:56:38;2.20;;;2.10;;
10120;SDS011;5100;45.176;5.714;2023-09-07T14:59:05;3.35;;;1.98;;
10120;SDS011;5100;45.176;5.714;2023-09-07T15:01:32;2.72;;;2.50;;
10120;SDS011;5100;45.176;5.714;2023-09-07T15:03:58;2.45;;;2.25;;